sensor_id;sensor_type;location;lat;lon;timestamp;pressure;altitude;pressure_sealevel;temperature;humidity
12247;BME280;6186;52.022;4.692;2023-04-06T00:00:37;101873.38;;;8.13;41.21
12247;BME280;6186;52.022;4.692;2023-04-06T00:03:02;101859.38;;;8.11;41.20
12247;BME280;6186;52.022;4.692;2023-04-06T00:05:28;101863.75;;;8.09;41.35
12247;BME280;6186;52.022;4.692;2023-04-06T00:07:53;101866.38;;;8.07;41.17
12247;BME280;6186;52.022;4.692;2023-04-06T00:10:18;101859.38;;;8.05;41.26
12247;BME280;6186;52.022;4.692;2023-04-06T00:12:43;101858.50;;;8.07;41.29
12247;BME280;6186;52.022;4.692;2023-04-06T00:15:09;101850.63;;;8.03;41.24
12247;BME280;6186;52.022;4.692;2023-04-06T00:17:34;101848.03;;;8.04;41.22
12247;BME280;6186;52.022;4.692;2023-04-06T00:19:59;101857.63;;;8.07;41.35
12247;BME280;6186;52.022;4.692;2023-04-06T00:22:25;101850.66;;;8.04;41.25
12247;BME280;6186;52.022;4.692;2023-04-06T00:24:50;101844.53;;;8.04;41.38
12247;BME280;6186;52.022;4.692;2023-04-06T00:27:15;101847.13;;;8.01;41.15
12247;BME280;6186;52.022;4.692;2023-04-06T00:29:40;101842.75;;;8.00;41.42
12247;BME280;6186;52.022;4.692;2023-04-06T00:32:05;101840.13;;;8.00;41.17
12247;BME280;6186;52.022;4.692;2023-04-06T00:34:31;101843.63;;;7.99;41.18
12247;BME280;6186;52.022;4.692;2023-04-06T00:36:56;101837.53;;;7.98;41.42
12247;BME280;6186;52.022;4.692;2023-04-06T00:39:21;101840.16;;;7.98;41.38
12247;BME280;6186;52.022;4.692;2023-04-06T00:41:50;101834.88;;;7.94;41.50
12247;BME280;6186;52.022;4.692;2023-04-06T00:44:16;101828.75;;;7.90;41.42
12247;BME280;6186;52.022;4.692;2023-04-06T00:46:41;101822.63;;;7.90;41.57
12247;BME280;6186;52.022;4.692;2023-04-06T00:49:07;101822.66;;;7.87;41.69
12247;BME280;6186;52.022;4.692;2023-04-06T00:51:32;101819.16;;;7.85;41.58
12247;BME280;6186;52.022;4.692;2023-04-06T00:53:57;101820.00;;;7.82;41.47
12247;BME280;6186;52.022;4.692;2023-04-06T00:56:22;101812.16;;;7.79;41.61
12247;BME280;6186;52.022;4.692;2023-04-06T00:58:48;101812.16;;;7.78;41.66
12247;BME280;6186;52.022;4.692;2023-04-06T01:01:13;101811.28;;;7.76;41.66
12247;BME280;6186;52.022;4.692;2023-04-06T01:03:38;101814.75;;;7.73;41.88
12247;BME280;6186;52.022;4.692;2023-04-06T01:06:03;101790.28;;;7.63;41.68
12247;BME280;6186;52.022;4.692;2023-04-06T01:08:29;101805.13;;;7.68;41.70
12247;BME280;6186;52.022;4.692;2023-04-06T01:10:54;101780.63;;;7.53;41.71
12247;BME280;6186;52.022;4.692;2023-04-06T01:13:19;101801.66;;;7.64;41.66
12247;BME280;6186;52.022;4.692;2023-04-06T01:15:45;101800.75;;;7.63;41.84
12247;BME280;6186;52.022;4.692;2023-04-06T01:18:11;101793.78;;;7.64;41.96
12247;BME280;6186;52.022;4.692;2023-04-06T01:20:36;101791.13;;;7.59;41.84
12247;BME280;6186;52.022;4.692;2023-04-06T01:23:01;101786.78;;;7.58;41.84
12247;BME280;6186;52.022;4.692;2023-04-06T01:25:27;101783.28;;;7.55;41.72
12247;BME280;6186;52.022;4.692;2023-04-06T01:27:52;101782.38;;;7.51;41.74
12247;BME280;6186;52.022;4.692;2023-04-06T01:30:17;101784.16;;;7.51;41.84
12247;BME280;6186;52.022;4.692;2023-04-06T01:32:43;101768.41;;;7.46;41.94
12247;BME280;6186;52.022;4.692;2023-04-06T01:35:08;101774.53;;;7.48;41.74
12247;BME280;6186;52.022;4.692;2023-04-06T01:37:34;101768.41;;;7.46;41.68
12247;BME280;6186;52.022;4.692;2023-04-06T01:40:00;101766.69;;;7.45;41.73
12247;BME280;6186;52.022;4.692;2023-04-06T01:42:25;101752.69;;;7.45;42.16
12247;BME280;6186;52.022;4.692;2023-04-06T01:44:50;101756.16;;;7.44;41.96
12247;BME280;6186;52.022;4.692;2023-04-06T01:47:15;101757.91;;;7.40;41.77
12247;BME280;6186;52.022;4.692;2023-04-06T01:49:41;101749.19;;;7.38;41.87
12247;BME280;6186;52.022;4.692;2023-04-06T01:52:06;101742.19;;;7.31;41.88
12247;BME280;6186;52.022;4.692;2023-04-06T01:54:31;101743.06;;;7.35;41.93
12247;BME280;6186;52.022;4.692;2023-04-06T01:56:56;101738.69;;;7.32;42.15
12247;BME280;6186;52.022;4.692;2023-04-06T01:59:22;101741.31;;;7.31;42.15
12247;BME280;6186;52.022;4.692;2023-04-06T02:01:47;101735.19;;;7.26;42.07
12247;BME280;6186;52.022;4.692;2023-04-06T02:04:12;101743.06;;;7.30;42.20
12247;BME280;6186;52.022;4.692;2023-04-06T02:06:37;101736.94;;;7.28;42.27
12247;BME280;6186;52.022;4.692;2023-04-06T02:09:03;101741.31;;;7.28;42.07
12247;BME280;6186;52.022;4.692;2023-04-06T02:11:28;101727.31;;;7.27;42.07
12247;BME280;6186;52.022;4.692;2023-04-06T02:13:53;101731.69;;;7.25;42.25
12247;BME280;6186;52.022;4.692;2023-04-06T02:16:19;101722.09;;;7.23;42.17
12247;BME280;6186;52.022;4.692;2023-04-06T02:18:44;101723.84;;;7.25;42.12
12247;BME280;6186;52.022;4.692;2023-04-06T02:21:09;101722.94;;;7.23;42.26
12247;BME280;6186;52.022;4.692;2023-04-06T02:23:34;101719.47;;;7.24;42.57
12247;BME280;6186;52.022;4.692;2023-04-06T02:26:00;101712.47;;;7.23;42.54
12247;BME280;6186;52.022;4.692;2023-04-06T02:28:25;101711.63;;;7.23;42.24
12247;BME280;6186;52.022;4.692;2023-04-06T02:30:50;101711.63;;;7.23;42.35
12247;BME280;6186;52.022;4.692;2023-04-06T02:33:15;101701.13;;;7.21;42.28
12247;BME280;6186;52.022;4.692;2023-04-06T02:35:40;101703.75;;;7.18;42.27
12247;BME280;6186;52.022;4.692;2023-04-06T02:38:06;101701.13;;;7.17;42.10
12247;BME280;6186;52.022;4.692;2023-04-06T02:40:31;101702.00;;;7.14;42.43
12247;BME280;6186;52.022;4.692;2023-04-06T02:42:56;101692.41;;;7.15;42.33
12247;BME280;6186;52.022;4.692;2023-04-06T02:45:21;101694.13;;;7.14;42.65
12247;BME280;6186;52.022;4.692;2023-04-06T02:47:46;101688.91;;;7.11;42.26
12247;BME280;6186;52.022;4.692;2023-04-06T02:50:12;101698.53;;;7.15;42.67
12247;BME280;6186;52.022;4.692;2023-04-06T02:52:37;101687.16;;;7.16;42.75
12247;BME280;6186;52.022;4.692;2023-04-06T02:55:02;101690.66;;;7.17;42.34
12247;BME280;6186;52.022;4.692;2023-04-06T02:57:28;101686.28;;;7.14;42.77
12247;BME280;6186;52.022;4.692;2023-04-06T02:59:53;101680.16;;;7.12;42.42
12247;BME280;6186;52.022;4.692;2023-04-06T03:02:18;101681.06;;;7.11;42.54
12247;BME280;6186;52.022;4.692;2023-04-06T03:04:44;101677.53;;;7.12;42.42
12247;BME280;6186;52.022;4.692;2023-04-06T03:07:09;101682.78;;;7.12;42.73
12247;BME280;6186;52.022;4.692;2023-04-06T03:09:36;101671.44;;;7.12;42.46
12247;BME280;6186;52.022;4.692;2023-04-06T03:12:02;101674.06;;;7.10;42.62
12247;BME280;6186;52.022;4.692;2023-04-06T03:14:27;101670.56;;;7.08;43.03
12247;BME280;6186;52.022;4.692;2023-04-06T03:16:53;101662.72;;;7.07;42.75
12247;BME280;6186;52.022;4.692;2023-04-06T03:19:18;101659.22;;;7.05;42.75
12247;BME280;6186;52.022;4.692;2023-04-06T03:21:43;101660.09;;;7.04;42.62
12247;BME280;6186;52.022;4.692;2023-04-06T03:24:08;101658.34;;;7.01;43.01
12247;BME280;6186;52.022;4.692;2023-04-06T03:26:34;101657.47;;;6.98;43.27
12247;BME280;6186;52.022;4.692;2023-04-06T03:28:59;101658.31;;;6.95;43.13
12247;BME280;6186;52.022;4.692;2023-04-06T03:31:24;101654.81;;;6.95;43.36
12247;BME280;6186;52.022;4.692;2023-04-06T03:33:49;101660.94;;;6.97;43.29
12247;BME280;6186;52.022;4.692;2023-04-06T03:36:14;101656.56;;;6.99;43.14
12247;BME280;6186;52.022;4.692;2023-04-06T03:38:40;101653.97;;;6.97;43.29
12247;BME280;6186;52.022;4.692;2023-04-06T03:41:05;101654.84;;;6.99;43.55
12247;BME280;6186;52.022;4.692;2023-04-06T03:43:30;101650.47;;;7.00;43.25
12247;BME280;6186;52.022;4.692;2023-04-06T03:45:55;101649.59;;;6.96;43.13
12247;BME280;6186;52.022;4.692;2023-04-06T03:48:21;101646.13;;;6.94;43.35
12247;BME280;6186;52.022;4.692;2023-04-06T03:50:46;101646.97;;;6.93;43.41
12247;BME280;6186;52.022;4.692;2023-04-06T03:53:11;101646.97;;;6.92;43.46
12247;BME280;6186;52.022;4.692;2023-04-06T03:55:36;101649.56;;;6.87;43.59
12247;BME280;6186;52.022;4.692;2023-04-06T03:58:01;101635.59;;;6.81;43.89
12247;BME280;6186;52.022;4.692;2023-04-06T04:00:27;101641.72;;;6.81;43.84
12247;BME280;6186;52.022;4.692;2023-04-06T04:02:52;101645.22;;;6.85;43.73
12247;BME280;6186;52.022;4.692;2023-04-06T04:05:17;101635.59;;;6.79;43.74
12247;BME280;6186;52.022;4.692;2023-04-06T04:07:42;101635.59;;;6.82;44.35
12247;BME280;6186;52.022;4.692;2023-04-06T04:10:08;101643.44;;;6.82;44.11
12247;BME280;6186;52.022;4.692;2023-04-06T04:12:33;101638.22;;;6.81;44.05
12247;BME280;6186;52.022;4.692;2023-04-06T04:14:58;101639.06;;;6.77;44.23
12247;BME280;6186;52.022;4.692;2023-04-06T04:17:24;101625.09;;;6.78;44.44
12247;BME280;6186;52.022;4.692;2023-04-06T04:19:49;101629.47;;;6.73;44.35
12247;BME280;6186;52.022;4.692;2023-04-06T04:22:14;101634.72;;;6.79;44.36
12247;BME280;6186;52.022;4.692;2023-04-06T04:24:40;101633.84;;;6.77;44.39
12247;BME280;6186;52.022;4.692;2023-04-06T04:27:05;101632.97;;;6.78;44.52
12247;BME280;6186;52.022;4.692;2023-04-06T04:29:30;101625.97;;;6.71;44.13
12247;BME280;6186;52.022;4.692;2023-04-06T04:31:55;101597.16;;;6.54;44.67
12247;BME280;6186;52.022;4.692;2023-04-06T04:34:21;101631.22;;;6.75;44.94
12247;BME280;6186;52.022;4.692;2023-04-06T04:36:46;101631.22;;;6.74;45.02
12247;BME280;6186;52.022;4.692;2023-04-06T04:39:11;101629.50;;;6.76;44.48
12247;BME280;6186;52.022;4.692;2023-04-06T04:41:37;101627.72;;;6.76;44.65
12247;BME280;6186;52.022;4.692;2023-04-06T04:44:02;101633.84;;;6.80;45.12
12247;BME280;6186;52.022;4.692;2023-04-06T04:46:27;101623.38;;;6.75;44.72
12247;BME280;6186;52.022;4.692;2023-04-06T04:48:52;101628.63;;;6.81;44.60
12247;BME280;6186;52.022;4.692;2023-04-06T04:51:17;101625.13;;;6.82;44.80
12247;BME280;6186;52.022;4.692;2023-04-06T04:53:43;101633.88;;;6.83;44.92
12247;BME280;6186;52.022;4.692;2023-04-06T04:56:08;101626.03;;;6.81;45.07
12247;BME280;6186;52.022;4.692;2023-04-06T04:58:33;101628.63;;;6.83;44.82
12247;BME280;6186;52.022;4.692;2023-04-06T05:00:58;101630.38;;;6.84;45.32
12247;BME280;6186;52.022;4.692;2023-04-06T05:03:25;101629.50;;;6.86;45.22
12247;BME280;6186;52.022;4.692;2023-04-06T05:05:51;101620.78;;;6.87;45.12
12247;BME280;6186;52.022;4.692;2023-04-06T05:08:16;101623.41;;;6.93;45.20
12247;BME280;6186;52.022;4.692;2023-04-06T05:10:42;101630.41;;;6.94;45.13
12247;BME280;6186;52.022;4.692;2023-04-06T05:13:07;101624.28;;;6.95;45.06
12247;BME280;6186;52.022;4.692;2023-04-06T05:15:33;101628.66;;;6.96;45.45
12247;BME280;6186;52.022;4.692;2023-04-06T05:17:58;101630.41;;;6.97;45.33
12247;BME280;6186;52.022;4.692;2023-04-06T05:20:24;101623.44;;;6.96;45.53
12247;BME280;6186;52.022;4.692;2023-04-06T05:22:49;101626.06;;;6.96;45.60
12247;BME280;6186;52.022;4.692;2023-04-06T05:25:15;101619.94;;;6.99;45.23
12247;BME280;6186;52.022;4.692;2023-04-06T05:27:40;101613.84;;;7.00;45.67
12247;BME280;6186;52.022;4.692;2023-04-06T05:30:07;101619.09;;;6.98;45.83
12247;BME280;6186;52.022;4.692;2023-04-06T05:32:32;101626.06;;;7.05;45.47
12247;BME280;6186;52.022;4.692;2023-04-06T05:34:57;101617.34;;;7.09;45.67
12247;BME280;6186;52.022;4.692;2023-04-06T05:37:23;101619.94;;;7.14;45.78
12247;BME280;6186;52.022;4.692;2023-04-06T05:39:48;101620.84;;;7.19;45.84
12247;BME280;6186;52.022;4.692;2023-04-06T05:42:13;101624.34;;;7.25;45.57
12247;BME280;6186;52.022;4.692;2023-04-06T05:44:38;101621.72;;;7.31;45.80
12247;BME280;6186;52.022;4.692;2023-04-06T05:47:04;101618.25;;;7.35;45.54
12247;BME280;6186;52.022;4.692;2023-04-06T05:49:29;101624.34;;;7.39;45.97
12247;BME280;6186;52.022;4.692;2023-04-06T05:51:54;101622.59;;;7.39;45.86
12247;BME280;6186;52.022;4.692;2023-04-06T05:54:20;101618.25;;;7.41;45.85
12247;BME280;6186;52.022;4.692;2023-04-06T05:56:45;101618.25;;;7.41;45.48
12247;BME280;6186;52.022;4.692;2023-04-06T05:59:10;101622.59;;;7.42;45.78
12247;BME280;6186;52.022;4.692;2023-04-06T06:01:35;101618.25;;;7.41;45.61
12247;BME280;6186;52.022;4.692;2023-04-06T06:04:01;101622.59;;;7.41;45.46
12247;BME280;6186;52.022;4.692;2023-04-06T06:06:28;101622.59;;;7.42;45.94
12247;BME280;6186;52.022;4.692;2023-04-06T06:08:53;101607.75;;;7.37;45.51
12247;BME280;6186;52.022;4.692;2023-04-06T06:11:18;101619.09;;;7.40;45.90
12247;BME280;6186;52.022;4.692;2023-04-06T06:13:43;101615.63;;;7.40;45.92
12247;BME280;6186;52.022;4.692;2023-04-06T06:16:09;101611.25;;;7.40;46.00
12247;BME280;6186;52.022;4.692;2023-04-06T06:18:34;101605.13;;;7.44;45.83
12247;BME280;6186;52.022;4.692;2023-04-06T06:20:59;101613.88;;;7.51;45.67
12247;BME280;6186;52.022;4.692;2023-04-06T06:23:24;101612.97;;;7.53;46.11
12247;BME280;6186;52.022;4.692;2023-04-06T06:25:49;101604.25;;;7.51;45.86
12247;BME280;6186;52.022;4.692;2023-04-06T06:28:15;101609.50;;;7.54;45.98
12247;BME280;6186;52.022;4.692;2023-04-06T06:30:40;101619.09;;;7.57;46.46
12247;BME280;6186;52.022;4.692;2023-04-06T06:33:05;101611.25;;;7.58;46.12
12247;BME280;6186;52.022;4.692;2023-04-06T06:35:31;101605.13;;;7.56;46.36
12247;BME280;6186;52.022;4.692;2023-04-06T06:37:56;101615.59;;;7.67;46.09
12247;BME280;6186;52.022;4.692;2023-04-06T06:40:21;101612.97;;;7.69;46.11
12247;BME280;6186;52.022;4.692;2023-04-06T06:42:46;101615.59;;;7.69;46.05
12247;BME280;6186;52.022;4.692;2023-04-06T06:45:11;101609.50;;;7.70;46.14
12247;BME280;6186;52.022;4.692;2023-04-06T06:47:37;101620.84;;;7.75;46.24
12247;BME280;6186;52.022;4.692;2023-04-06T06:50:02;101604.22;;;7.73;46.53
12247;BME280;6186;52.022;4.692;2023-04-06T06:52:27;101613.84;;;7.81;46.37
12247;BME280;6186;52.022;4.692;2023-04-06T06:54:53;101604.25;;;7.76;46.52
12247;BME280;6186;52.022;4.692;2023-04-06T06:57:18;101608.59;;;7.83;46.50
12247;BME280;6186;52.022;4.692;2023-04-06T06:59:43;101611.22;;;7.84;46.70
12247;BME280;6186;52.022;4.692;2023-04-06T07:02:08;101602.47;;;7.81;46.70
12247;BME280;6186;52.022;4.692;2023-04-06T07:04:33;101607.72;;;7.87;46.56
12247;BME280;6186;52.022;4.692;2023-04-06T07:06:59;101604.22;;;7.92;46.68
12247;BME280;6186;52.022;4.692;2023-04-06T07:09:24;101601.56;;;7.97;46.88
12247;BME280;6186;52.022;4.692;2023-04-06T07:11:49;101598.94;;;8.06;46.84
12247;BME280;6186;52.022;4.692;2023-04-06T07:14:15;101597.13;;;8.14;47.03
12247;BME280;6186;52.022;4.692;2023-04-06T07:16:41;101602.38;;;8.18;46.90
12247;BME280;6186;52.022;4.692;2023-04-06T07:19:06;101605.88;;;8.22;47.10
12247;BME280;6186;52.022;4.692;2023-04-06T07:21:31;101598.91;;;8.27;47.12
12247;BME280;6186;52.022;4.692;2023-04-06T07:23:56;101597.13;;;8.30;47.28
12247;BME280;6186;52.022;4.692;2023-04-06T07:26:22;101589.25;;;8.33;47.09
12247;BME280;6186;52.022;4.692;2023-04-06T07:28:47;101589.25;;;8.38;47.22
12247;BME280;6186;52.022;4.692;2023-04-06T07:31:12;101581.34;;;8.44;47.37
12247;BME280;6186;52.022;4.692;2023-04-06T07:33:37;101576.03;;;8.50;47.35
12247;BME280;6186;52.022;4.692;2023-04-06T07:36:03;101583.88;;;8.57;47.43
12247;BME280;6186;52.022;4.692;2023-04-06T07:38:28;101580.34;;;8.63;47.58
12247;BME280;6186;52.022;4.692;2023-04-06T07:40:53;101582.09;;;8.70;47.58
12247;BME280;6186;52.022;4.692;2023-04-06T07:43:19;101584.69;;;8.76;47.59
12247;BME280;6186;52.022;4.692;2023-04-06T07:45:44;101586.38;;;8.80;47.58
12247;BME280;6186;52.022;4.692;2023-04-06T07:48:09;101587.25;;;8.84;47.67
12247;BME280;6186;52.022;4.692;2023-04-06T07:50:34;101585.47;;;8.87;47.79
12247;BME280;6186;52.022;4.692;2023-04-06T07:52:59;101582.78;;;8.93;47.83
12247;BME280;6186;52.022;4.692;2023-04-06T07:55:25;101581.91;;;8.94;48.09
12247;BME280;6186;52.022;4.692;2023-04-06T07:57:50;101585.41;;;8.98;48.36
12247;BME280;6186;52.022;4.692;2023-04-06T08:00:15;101583.66;;;8.98;48.18
12247;BME280;6186;52.022;4.692;2023-04-06T08:02:40;101587.13;;;9.00;48.36
12247;BME280;6186;52.022;4.692;2023-04-06T08:05:06;101588.84;;;9.03;48.42
12247;BME280;6186;52.022;4.692;2023-04-06T08:07:31;101592.34;;;9.08;48.52
12247;BME280;6186;52.022;4.692;2023-04-06T08:09:56;101587.94;;;9.11;48.41
12247;BME280;6186;52.022;4.692;2023-04-06T08:12:22;101592.28;;;9.15;48.56
12247;BME280;6186;52.022;4.692;2023-04-06T08:14:47;101588.75;;;9.16;48.55
12247;BME280;6186;52.022;4.692;2023-04-06T08:17:13;101581.78;;;9.12;48.67
12247;BME280;6186;52.022;4.692;2023-04-06T08:19:38;101580.06;;;9.11;48.74
12247;BME280;6186;52.022;4.692;2023-04-06T08:22:03;101582.72;;;9.08;48.63
12247;BME280;6186;52.022;4.692;2023-04-06T08:24:28;101584.44;;;9.09;49.14
12247;BME280;6186;52.022;4.692;2023-04-06T08:26:54;101584.41;;;9.15;49.31
12247;BME280;6186;52.022;4.692;2023-04-06T08:29:19;101594.91;;;9.15;49.27
12247;BME280;6186;52.022;4.692;2023-04-06T08:31:44;101593.09;;;9.20;49.55
12247;BME280;6186;52.022;4.692;2023-04-06T08:34:09;101584.31;;;9.24;49.74
12247;BME280;6186;52.022;4.692;2023-04-06T08:36:35;101594.78;;;9.27;49.50
12247;BME280;6186;52.022;4.692;2023-04-06T08:39:00;101583.41;;;9.28;50.16
12247;BME280;6186;52.022;4.692;2023-04-06T08:41:26;101591.25;;;9.31;50.33
12247;BME280;6186;52.022;4.692;2023-04-06T08:43:56;101591.25;;;9.34;50.21
12247;BME280;6186;52.022;4.692;2023-04-06T08:46:22;101586.78;;;9.42;50.27
12247;BME280;6186;52.022;4.692;2023-04-06T08:48:48;101587.59;;;9.50;50.60
12247;BME280;6186;52.022;4.692;2023-04-06T08:51:14;101591.94;;;9.55;50.61
12247;BME280;6186;52.022;4.692;2023-04-06T08:53:40;101582.25;;;9.61;51.22
12247;BME280;6186;52.022;4.692;2023-04-06T08:56:07;101583.97;;;9.64;51.25
12247;BME280;6186;52.022;4.692;2023-04-06T08:58:37;101591.81;;;9.70;51.26
12247;BME280;6186;52.022;4.692;2023-04-06T09:01:07;101579.53;;;9.70;51.68
12247;BME280;6186;52.022;4.692;2023-04-06T09:03:36;101587.41;;;9.72;51.67
12247;BME280;6186;52.022;4.692;2023-04-06T09:06:01;101581.25;;;9.71;51.99
12247;BME280;6186;52.022;4.692;2023-04-06T09:08:27;101582.94;;;9.80;52.00
12247;BME280;6186;52.022;4.692;2023-04-06T09:10:52;101587.31;;;9.79;52.31
12247;BME280;6186;52.022;4.692;2023-04-06T09:13:18;101578.56;;;9.82;52.58
12247;BME280;6186;52.022;4.692;2023-04-06T09:15:43;101587.25;;;9.87;52.68
12247;BME280;6186;52.022;4.692;2023-04-06T09:18:08;101575.78;;;9.92;52.79
12247;BME280;6186;52.022;4.692;2023-04-06T09:20:33;101575.72;;;9.98;53.03
12247;BME280;6186;52.022;4.692;2023-04-06T09:22:59;101585.41;;;9.95;53.27
12247;BME280;6186;52.022;4.692;2023-04-06T09:25:24;101564.44;;;9.89;53.26
12247;BME280;6186;52.022;4.692;2023-04-06T09:27:59;101581.88;;;9.96;53.52
12247;BME280;6186;52.022;4.692;2023-04-06T09:30:25;101581.88;;;9.99;53.92
12247;BME280;6186;52.022;4.692;2023-04-06T09:32:52;101569.63;;;9.95;53.81
12247;BME280;6186;52.022;4.692;2023-04-06T09:35:19;101577.47;;;9.99;54.10
12247;BME280;6186;52.022;4.692;2023-04-06T09:37:46;101578.31;;;10.01;54.30
12247;BME280;6186;52.022;4.692;2023-04-06T09:40:12;101569.53;;;10.04;54.35
12247;BME280;6186;52.022;4.692;2023-04-06T09:42:44;101561.63;;;10.04;54.77
12247;BME280;6186;52.022;4.692;2023-04-06T09:45:10;101570.34;;;10.12;54.88
12247;BME280;6186;52.022;4.692;2023-04-06T09:47:36;101571.25;;;10.12;55.04
12247;BME280;6186;52.022;4.692;2023-04-06T09:50:03;101569.50;;;10.05;55.00
12247;BME280;6186;52.022;4.692;2023-04-06T09:52:32;101565.16;;;10.04;54.98
12247;BME280;6186;52.022;4.692;2023-04-06T09:55:03;101566.06;;;10.00;55.40
12247;BME280;6186;52.022;4.692;2023-04-06T09:57:32;101575.75;;;9.97;55.98
12247;BME280;6186;52.022;4.692;2023-04-06T10:00:09;101565.28;;;9.92;55.91
12247;BME280;6186;52.022;4.692;2023-04-06T10:05:21;101564.44;;;9.89;56.44
12247;BME280;6186;52.022;4.692;2023-04-06T10:07:49;101556.56;;;9.89;56.75
12247;BME280;6186;52.022;4.692;2023-04-06T10:10:16;101549.59;;;9.85;56.56
12247;BME280;6186;52.022;4.692;2023-04-06T10:12:41;101560.91;;;9.90;57.21
12247;BME280;6186;52.022;4.692;2023-04-06T10:15:07;101549.53;;;9.89;57.54
12247;BME280;6186;52.022;4.692;2023-04-06T10:17:33;101553.91;;;9.89;57.82
12247;BME280;6186;52.022;4.692;2023-04-06T10:20:03;101553.91;;;9.90;58.16
12247;BME280;6186;52.022;4.692;2023-04-06T10:22:45;101549.50;;;9.92;58.44
12247;BME280;6186;52.022;4.692;2023-04-06T10:25:14;101560.91;;;9.93;58.90
12247;BME280;6186;52.022;4.692;2023-04-06T10:27:39;101558.28;;;9.91;59.06
12247;BME280;6186;52.022;4.692;2023-04-06T10:30:06;101547.78;;;9.88;59.14
12247;BME280;6186;52.022;4.692;2023-04-06T10:32:36;101541.69;;;9.88;59.50
12247;BME280;6186;52.022;4.692;2023-04-06T10:35:11;101538.16;;;9.89;59.52
12247;BME280;6186;52.022;4.692;2023-04-06T10:38:06;101540.78;;;9.89;60.09
12247;BME280;6186;52.022;4.692;2023-04-06T10:40:31;101544.31;;;9.88;60.23
12247;BME280;6186;52.022;4.692;2023-04-06T10:43:10;101532.94;;;9.83;60.35
12247;BME280;6186;52.022;4.692;2023-04-06T10:45:36;101542.50;;;9.90;60.66
12247;BME280;6186;52.022;4.692;2023-04-06T10:48:15;101546.06;;;9.87;60.68
12247;BME280;6186;52.022;4.692;2023-04-06T10:50:44;101534.69;;;9.82;61.58
12247;BME280;6186;52.022;4.692;2023-04-06T10:53:10;101516.38;;;9.76;61.88
12247;BME280;6186;52.022;4.692;2023-04-06T10:55:38;101516.31;;;9.81;62.07
12247;BME280;6186;52.022;4.692;2023-04-06T10:58:06;101525.03;;;9.84;62.80
12247;BME280;6186;52.022;4.692;2023-04-06T11:00:32;101518.06;;;9.83;63.08
12247;BME280;6186;52.022;4.692;2023-04-06T11:03:00;101517.16;;;9.83;62.85
12247;BME280;6186;52.022;4.692;2023-04-06T11:05:25;101509.31;;;9.81;63.23
12247;BME280;6186;52.022;4.692;2023-04-06T11:07:50;101509.28;;;9.83;63.43
12247;BME280;6186;52.022;4.692;2023-04-06T11:10:21;101510.22;;;9.80;63.70
12247;BME280;6186;52.022;4.692;2023-04-06T11:12:52;101502.31;;;9.80;63.89
12247;BME280;6186;52.022;4.692;2023-04-06T11:15:19;101502.31;;;9.80;64.10
12247;BME280;6186;52.022;4.692;2023-04-06T11:17:45;101505.81;;;9.79;64.41
12247;BME280;6186;52.022;4.692;2023-04-06T11:20:11;101485.69;;;9.77;64.59
12247;BME280;6186;52.022;4.692;2023-04-06T11:22:36;101501.44;;;9.80;65.31
12247;BME280;6186;52.022;4.692;2023-04-06T11:25:08;101499.72;;;9.76;65.50
12247;BME280;6186;52.022;4.692;2023-04-06T11:27:34;101502.38;;;9.74;65.55
12247;BME280;6186;52.022;4.692;2023-04-06T11:30:00;101490.19;;;9.69;65.62
12247;BME280;6186;52.022;4.692;2023-04-06T11:32:26;101490.13;;;9.72;66.27
12247;BME280;6186;52.022;4.692;2023-04-06T11:34:51;101493.66;;;9.71;66.71
12247;BME280;6186;52.022;4.692;2023-04-06T11:37:16;101501.50;;;9.74;66.81
12247;BME280;6186;52.022;4.692;2023-04-06T11:39:49;101488.38;;;9.72;67.16
12247;BME280;6186;52.022;4.692;2023-04-06T11:42:23;101492.75;;;9.72;67.60
12247;BME280;6186;52.022;4.692;2023-04-06T11:44:56;101483.16;;;9.69;68.17
12247;BME280;6186;52.022;4.692;2023-04-06T11:47:30;101468.31;;;9.67;68.49
12247;BME280;6186;52.022;4.692;2023-04-06T11:49:56;101480.50;;;9.72;69.11
12247;BME280;6186;52.022;4.692;2023-04-06T11:52:29;101480.47;;;9.74;69.48
12247;BME280;6186;52.022;4.692;2023-04-06T11:54:55;101472.56;;;9.75;70.04
12247;BME280;6186;52.022;4.692;2023-04-06T11:57:21;101469.91;;;9.77;70.40
12247;BME280;6186;52.022;4.692;2023-04-06T11:59:47;101464.66;;;9.77;70.30
12247;BME280;6186;52.022;4.692;2023-04-06T12:02:12;101472.53;;;9.80;70.41
12247;BME280;6186;52.022;4.692;2023-04-06T12:04:38;101468.97;;;9.82;70.63
12247;BME280;6186;52.022;4.692;2023-04-06T12:07:03;101464.66;;;9.78;70.67
12247;BME280;6186;52.022;4.692;2023-04-06T12:09:29;101465.59;;;9.74;70.92
12247;BME280;6186;52.022;4.692;2023-04-06T12:11:54;101456.84;;;9.72;71.68
12247;BME280;6186;52.022;4.692;2023-04-06T12:14:21;101465.59;;;9.73;72.01
12247;BME280;6186;52.022;4.692;2023-04-06T12:16:46;101462.06;;;9.74;72.54
12247;BME280;6186;52.022;4.692;2023-04-06T12:19:11;101455.91;;;9.75;72.56
12247;BME280;6186;52.022;4.692;2023-04-06T12:21:36;101462.06;;;9.75;73.07
12247;BME280;6186;52.022;4.692;2023-04-06T12:24:02;101459.41;;;9.77;73.18
12247;BME280;6186;52.022;4.692;2023-04-06T12:26:27;101457.59;;;9.82;73.23
12247;BME280;6186;52.022;4.692;2023-04-06T12:28:53;101464.59;;;9.83;73.64
12247;BME280;6186;52.022;4.692;2023-04-06T12:31:19;101452.41;;;9.76;73.57
12247;BME280;6186;52.022;4.692;2023-04-06T12:33:50;101446.25;;;9.77;73.94
12247;BME280;6186;52.022;4.692;2023-04-06T12:36:17;101444.56;;;9.74;74.14
12247;BME280;6186;52.022;4.692;2023-04-06T12:38:42;101448.91;;;9.75;74.39
12247;BME280;6186;52.022;4.692;2023-04-06T12:41:07;101454.19;;;9.74;74.39
12247;BME280;6186;52.022;4.692;2023-04-06T12:43:33;101436.69;;;9.71;75.22
12247;BME280;6186;52.022;4.692;2023-04-06T12:45:58;101445.41;;;9.75;75.49
12247;BME280;6186;52.022;4.692;2023-04-06T12:48:24;101442.84;;;9.70;75.67
12247;BME280;6186;52.022;4.692;2023-04-06T12:51:00;101446.28;;;9.75;76.14
12247;BME280;6186;52.022;4.692;2023-04-06T12:53:26;101441.03;;;9.75;76.06
12247;BME280;6186;52.022;4.692;2023-04-06T12:55:53;101431.41;;;9.74;76.41
12247;BME280;6186;52.022;4.692;2023-04-06T12:58:18;101436.59;;;9.79;76.85
12247;BME280;6186;52.022;4.692;2023-04-06T13:00:44;101441.00;;;9.78;77.48
12247;BME280;6186;52.022;4.692;2023-04-06T13:03:09;101434.88;;;9.75;77.28
12247;BME280;6186;52.022;4.692;2023-04-06T13:05:34;101420.94;;;9.70;77.57